createdAt,value
2017-12-23T00:01:49.180Z,83.47
2017-12-23T00:05:53.307Z,83.23
2017-12-23T00:24:55.217Z,83.95
2017-12-23T00:49:16.774Z,84.23
2017-12-23T00:50:16.039Z,84.05
2017-12-23T00:53:07.005Z,84.52
2017-12-23T00:54:01.607Z,84.23
2017-12-23T00:54:48.850Z,85.1
2017-12-23T00:55:37.647Z,84.81
2017-12-23T01:03:06.601Z,84.72
2017-12-23T01:04:03.686Z,84.05
2017-12-23T01:04:55.019Z,84.23
2017-12-23T01:06:00.364Z,84.14
2017-12-23T01:08:51.896Z,83.28
2017-12-23T01:45:48.341Z,85.25
2017-12-23T01:46:31.301Z,85.25
2017-12-23T01:47:15.875Z,85.15
2017-12-23T01:47:58.798Z,84.96
2017-12-23T01:48:43.190Z,85.05
2017-12-23T01:49:23.597Z,85.34
2017-12-23T01:57:19.088Z,85.15
2017-12-23T01:59:32.559Z,85.63
2017-12-23T02:01:37.147Z,85.72
2017-12-23T02:02:25.072Z,86.49
2017-12-23T02:06:34.996Z,86.1
2017-12-23T02:23:04.309Z,85.72
2017-12-23T02:30:33.874Z,86.49
2017-12-23T02:39:31.489Z,86.49
2017-12-23T02:46:35.138Z,86.39
2017-12-23T02:47:15.081Z,86.3
2017-12-23T02:47:55.296Z,86.87
2017-12-23T02:48:36.471Z,86.58
2017-12-23T02:49:17.124Z,86.49
2017-12-23T02:49:58.508Z,86.3
2017-12-23T02:50:39.233Z,86.2
2017-12-23T02:51:22.007Z,85.72
2017-12-23T02:52:02.531Z,85.72
2017-12-23T02:52:43.241Z,86.01
2017-12-23T02:53:24.533Z,85.44
2017-12-23T02:54:04.781Z,85.44
2017-12-23T02:54:46.460Z,85.25
2017-12-23T02:55:25.925Z,85.53
2017-12-23T02:56:06.446Z,85.25
2017-12-23T02:56:48.300Z,85.15
2017-12-23T02:57:28.751Z,85.44
2017-12-23T02:58:09.043Z,85.44
2017-12-23T02:58:49.846Z,85.34
2017-12-23T02:59:31.094Z,86.01
2017-12-23T03:00:12.699Z,85.82
2017-12-23T03:00:53.416Z,86.2
2017-12-23T03:01:34.160Z,85.72
2017-12-23T03:02:14.571Z,86.3
2017-12-23T03:02:55.943Z,86.39
2017-12-23T03:03:37.388Z,86.3
2017-12-23T03:04:17.828Z,86.3
2017-12-23T03:04:58.299Z,86.68
2017-12-23T03:05:38.958Z,86.68
2017-12-23T03:06:19.143Z,86.01
2017-12-23T03:06:59.940Z,85.82
2017-12-23T03:07:41.932Z,86.68
2017-12-23T03:08:23.151Z,86.58
2017-12-23T03:09:04.156Z,85.91
2017-12-23T03:09:44.756Z,85.82
2017-12-23T03:10:25.159Z,85.91
2017-12-23T03:11:09.492Z,85.15
2017-12-23T03:11:51.550Z,85.82
2017-12-23T03:12:31.835Z,86.01
2017-12-23T03:13:12.427Z,86.3
2017-12-23T03:13:54.518Z,85.63
2017-12-23T03:14:36.658Z,86.3
2017-12-23T03:15:17.222Z,86.44
2017-12-23T03:15:57.847Z,86.44
2017-12-23T03:16:38.280Z,86.92
2017-12-23T03:17:18.660Z,86.73
2017-12-23T03:17:59.233Z,86.63
2017-12-23T03:18:40.345Z,86.25
2017-12-23T03:19:21.142Z,86.63
2017-12-23T03:20:04.332Z,86.82
2017-12-23T03:20:44.958Z,86.44
2017-12-23T03:21:26.397Z,86.44
2017-12-23T03:22:09.175Z,86.25
2017-12-23T03:22:51.686Z,86.54
2017-12-23T03:23:33.758Z,86.25
2017-12-23T03:24:13.984Z,85.87
2017-12-23T03:24:54.554Z,86.35
2017-12-23T03:26:47.809Z,86.54
2017-12-23T03:27:33.131Z,87.02
2017-12-23T03:28:13.743Z,86.06
2017-12-23T03:28:54.095Z,86.44
2017-12-23T03:29:34.660Z,86.35
2017-12-23T03:30:18.473Z,86.82
2017-12-23T03:30:59.847Z,86.92
2017-12-23T03:31:40.747Z,86.54
2017-12-23T03:32:21.399Z,86.82
2017-12-23T03:34:23.807Z,86.73
2017-12-23T03:38:25.817Z,85.68
2017-12-23T03:42:51.714Z,86.06
2017-12-23T03:51:59.226Z,86.44
2017-12-23T04:00:01.694Z,85.91
2017-12-23T04:44:31.679Z,88.59
2017-12-23T04:47:59.979Z,87.64
2017-12-23T04:52:45.411Z,87.45
2017-12-23T04:55:50.734Z,86.25
2017-12-23T05:09:50.029Z,82.57
2017-12-23T05:13:32.303Z,82.29
2017-12-23T05:19:42.121Z,81.62
2017-12-23T05:27:17.957Z,80.22
2017-12-23T05:33:13.239Z,79.56
2017-12-23T05:37:09.883Z,79.08
2017-12-23T05:39:31.246Z,78.99
2017-12-23T05:50:02.398Z,78.79
2017-12-23T05:53:40.064Z,79.75
2017-12-23T05:57:40.801Z,79.46
2017-12-23T06:01:06.955Z,79.27
2017-12-23T06:03:07.130Z,79.46
2017-12-23T06:17:17.997Z,80.85
2017-12-23T06:20:06.171Z,81.33
2017-12-23T06:25:58.599Z,81.04
2017-12-23T06:29:51.601Z,80.95
2017-12-23T06:30:45.750Z,80.19
2017-12-23T06:31:49.906Z,81.33
2017-12-23T06:33:47.157Z,81.43
2017-12-23T06:43:26.481Z,81.04
2017-12-23T06:44:19.415Z,80.95
2017-12-23T06:52:51.537Z,79.61
2017-12-23T06:53:48.747Z,79.9
2017-12-23T06:59:01.750Z,80.47
2017-12-23T07:08:53.165Z,80.95
2017-12-23T07:09:45.668Z,81.33
2017-12-23T07:18:49.769Z,80.38
2017-12-23T07:19:30.448Z,80.19
2017-12-23T07:20:12.526Z,80.57
2017-12-23T07:20:53.711Z,79.8
2017-12-23T07:21:35.635Z,80.38
2017-12-23T07:22:18.313Z,79.33
2017-12-23T07:22:58.023Z,80.47
2017-12-23T07:23:42.753Z,79.71
2017-12-23T07:24:23.631Z,79.33
2017-12-23T07:25:06.240Z,79.43
2017-12-23T07:25:47.601Z,79.71
2017-12-23T07:26:30.026Z,79.33
2017-12-23T07:27:13.910Z,79.23
2017-12-23T07:27:54.677Z,79.14
2017-12-23T07:28:37.065Z,79.33
2017-12-23T07:29:18.654Z,79.71
2017-12-23T07:30:00.622Z,79.71
2017-12-23T07:30:41.596Z,79.61
2017-12-23T07:42:23.848Z,80.33
2017-12-23T07:56:43.532Z,81.96
2017-12-23T07:57:35.563Z,81.96
2017-12-23T08:01:10.787Z,82.15
2017-12-23T08:04:38.943Z,81.38
2017-12-23T08:11:03.644Z,81.58
2017-12-23T08:12:34.581Z,82.43
2017-12-23T08:13:15.548Z,81.48
2017-12-23T08:13:56.213Z,82.72
2017-12-23T08:14:37.128Z,82.15
2017-12-23T08:17:03.301Z,83.11
2017-12-23T08:20:25.078Z,83.11
2017-12-23T08:21:05.760Z,83.77
2017-12-23T08:21:48.893Z,83.77
2017-12-23T08:22:29.775Z,82.24
2017-12-23T08:23:10.013Z,82.34
2017-12-23T08:23:50.486Z,82.34
2017-12-23T08:24:30.829Z,82.06
2017-12-23T08:25:13.206Z,82.34
2017-12-23T08:25:53.048Z,82.43
2017-12-23T08:26:33.786Z,81.96
2017-12-23T08:27:14.231Z,82.43
2017-12-23T08:27:54.737Z,81.52
2017-12-23T08:28:37.475Z,81.43
2017-12-23T08:37:20.513Z,81.01
2017-12-23T08:38:00.955Z,81.38
2017-12-23T08:38:41.902Z,81.67
2017-12-23T08:39:22.270Z,82.15
2017-12-23T08:40:02.769Z,82.53
2017-12-23T08:40:43.227Z,82.82
2017-12-23T08:41:25.080Z,83.58
2017-12-23T08:42:05.627Z,83.58
2017-12-23T08:42:46.305Z,82.91
2017-12-23T08:43:35.722Z,83.39
2017-12-23T08:44:16.102Z,83.77
2017-12-23T08:44:57.255Z,83.87
2017-12-23T08:45:38.655Z,83.2
2017-12-23T08:46:19.101Z,82.91
2017-12-23T08:48:24.289Z,82.72
2017-12-23T08:49:16.434Z,82.53
2017-12-23T08:50:08.877Z,83.2
2017-12-23T08:50:53.718Z,83.48
2017-12-23T08:51:34.071Z,83.11
2017-12-23T08:52:14.502Z,83.01
2017-12-23T08:52:54.895Z,82.34
2017-12-23T08:53:35.407Z,82.72
2017-12-23T08:54:15.805Z,82.63
2017-12-23T08:54:56.671Z,82.19
2017-12-23T08:55:36.894Z,82.29
2017-12-23T08:56:17.322Z,82.06
2017-12-23T08:56:57.690Z,82.19
2017-12-23T08:57:39.473Z,81.33
2017-12-23T08:58:19.700Z,82.09
2017-12-23T08:59:00.126Z,82.38
2017-12-23T08:59:40.451Z,82.06
2017-12-23T09:00:20.875Z,82.43
2017-12-23T09:01:01.259Z,82.43
2017-12-23T09:01:41.708Z,82.63
2017-12-23T09:02:23.014Z,82.53
2017-12-23T09:03:03.412Z,81.81
2017-12-23T09:03:43.870Z,82.34
2017-12-23T09:04:24.161Z,82.06
2017-12-23T09:05:04.606Z,83.01
2017-12-23T09:05:45.077Z,82.63
2017-12-23T09:06:25.420Z,82.63
2017-12-23T09:07:05.802Z,83.87
2017-12-23T09:07:46.190Z,83.01
2017-12-23T09:08:26.726Z,82.91
2017-12-23T09:09:07.144Z,82.91
2017-12-23T09:09:47.556Z,83.01
2017-12-23T09:10:27.893Z,82.82
2017-12-23T09:11:08.286Z,82.34
2017-12-23T09:11:48.708Z,82.24
2017-12-23T09:12:29.114Z,82.86
2017-12-23T09:13:09.536Z,82.67
2017-12-23T09:13:49.915Z,82.43
2017-12-23T09:14:30.323Z,82.38
2017-12-23T09:15:10.736Z,82
2017-12-23T09:15:51.053Z,82.29
2017-12-23T09:16:31.507Z,82.63
2017-12-23T09:17:11.858Z,82.29
2017-12-23T09:17:52.252Z,82.82
2017-12-23T09:18:32.679Z,82.34
2017-12-23T09:19:13.116Z,82.67
2017-12-23T09:19:53.509Z,82.38
2017-12-23T09:20:33.943Z,82.19
2017-12-23T09:21:14.346Z,82.67
2017-12-23T09:21:54.780Z,82.48
2017-12-23T09:22:35.194Z,82.19
2017-12-23T09:23:15.616Z,82.29
2017-12-23T09:23:55.972Z,82.29
2017-12-23T09:24:36.501Z,82.38
2017-12-23T09:25:16.890Z,81.33
2017-12-23T09:25:57.246Z,81.81
2017-12-23T09:26:38.121Z,82.38
2017-12-23T09:27:18.511Z,82.76
2017-12-23T09:27:58.995Z,82
2017-12-23T09:28:39.451Z,82.09
2017-12-23T09:29:19.926Z,82.38
2017-12-23T09:30:00.264Z,81.62
2017-12-23T09:30:40.736Z,82
2017-12-23T09:31:21.142Z,82.29
2017-12-23T09:32:01.535Z,81.71
2017-12-23T09:32:41.881Z,81.62
2017-12-23T09:33:22.302Z,82.09
2017-12-23T09:34:02.730Z,81.81
2017-12-23T09:34:43.043Z,82.19
2017-12-23T09:35:23.504Z,82.38
2017-12-23T09:36:03.877Z,82.38
2017-12-23T09:36:44.358Z,82.29
2017-12-23T09:37:24.758Z,81.33
2017-12-23T09:38:05.177Z,81.71
2017-12-23T09:38:46.152Z,81.52
2017-12-23T09:39:26.483Z,82.29
2017-12-23T09:40:06.809Z,81.71
2017-12-23T09:40:47.956Z,81.52
2017-12-23T09:41:29.965Z,82.38
2017-12-23T09:42:09.587Z,81.71
2017-12-23T09:42:51.468Z,82
2017-12-23T09:43:32.393Z,81.43
2017-12-23T09:44:13.791Z,81.24
2017-12-23T09:44:54.548Z,81.71
2017-12-23T09:45:35.903Z,81.43
2017-12-23T09:46:18.459Z,82
2017-12-23T09:46:58.734Z,81.9
2017-12-23T09:47:40.466Z,81.62
2017-12-23T09:48:22.457Z,81.33
2017-12-23T09:49:01.991Z,81.81
2017-12-23T09:49:43.542Z,82.29
2017-12-23T09:50:24.041Z,82.29
2017-12-23T09:51:04.699Z,82.19
2017-12-23T09:51:45.534Z,82
2017-12-23T09:52:25.992Z,81.33
2017-12-23T09:53:07.951Z,81.81
2017-12-23T09:53:47.427Z,81.52
2017-12-23T09:54:27.767Z,81.81
2017-12-23T09:55:08.209Z,82.09
2017-12-23T09:55:48.662Z,81.71
2017-12-23T09:56:30.864Z,81.04
2017-12-23T09:57:11.152Z,80.76
2017-12-23T09:57:51.650Z,81.81
2017-12-23T09:58:32.566Z,81.43
2017-12-23T09:59:13.153Z,81.14
2017-12-23T09:59:53.786Z,80.47
2017-12-23T10:00:34.842Z,81.24
2017-12-23T10:01:15.045Z,81.04
2017-12-23T10:01:57.195Z,81.33
2017-12-23T10:02:41.173Z,81.04
2017-12-23T10:03:23.670Z,81.14
2017-12-23T10:04:04.203Z,80.66
2017-12-23T10:45:51.930Z,84.34
2017-12-23T10:48:23.013Z,83.67
2017-12-23T10:49:11.920Z,83.48
2017-12-23T10:49:51.575Z,83.77
2017-12-23T10:50:32.206Z,83.2
2017-12-23T10:51:13.815Z,83.01
2017-12-23T10:51:55.011Z,83.48
2017-12-23T10:52:35.842Z,84.06
2017-12-23T10:53:17.841Z,83.48
2017-12-23T10:54:00.880Z,83.58
2017-12-23T10:54:42.174Z,83.39
2017-12-23T10:55:23.016Z,82.86
2017-12-23T10:56:04.520Z,82.67
2017-12-23T10:56:45.273Z,82.57
2017-12-23T10:57:26.762Z,82.76
2017-12-23T10:58:07.331Z,82.95
2017-12-23T10:58:47.529Z,82.38
2017-12-23T10:59:28.260Z,82.19
2017-12-23T11:00:10.008Z,82
2017-12-23T11:00:50.342Z,81.9
2017-12-23T11:01:32.881Z,82.38
2017-12-23T11:02:13.906Z,82.29
2017-12-23T11:02:55.827Z,82.19
2017-12-23T11:03:36.819Z,81.62
2017-12-23T11:04:18.468Z,82.09
2017-12-23T11:04:59.165Z,81.52
2017-12-23T11:05:41.739Z,81.14
2017-12-23T11:06:22.520Z,80.85
2017-12-23T11:07:03.290Z,80.95
2017-12-23T11:07:43.790Z,81.14
2017-12-23T11:08:23.904Z,81.86
2017-12-23T11:09:04.798Z,81.29
2017-12-23T11:09:46.325Z,81.77
2017-12-23T11:10:27.282Z,82.15
2017-12-23T11:11:08.811Z,82.34
2017-12-23T11:11:49.408Z,81.67
2017-12-23T11:12:29.601Z,81.96
2017-12-23T11:13:10.615Z,82.63
2017-12-23T11:13:50.733Z,82.34
2017-12-23T11:14:32.070Z,82.63
2017-12-23T11:15:12.472Z,82.34
2017-12-23T11:15:53.294Z,81.96
2017-12-23T11:16:33.926Z,82.06
2017-12-23T11:17:15.134Z,82.24
2017-12-23T11:17:55.760Z,81.96
2017-12-23T11:18:36.264Z,81.38
2017-12-23T11:19:17.037Z,81.48
2017-12-23T11:19:58.472Z,81.62
2017-12-23T11:20:40.020Z,81.52
2017-12-23T11:21:20.841Z,81.48
2017-12-23T11:23:24.754Z,81.29
2017-12-23T11:27:16.957Z,81.58
2017-12-23T11:27:55.488Z,81.29
2017-12-23T11:28:36.288Z,81.29
2017-12-23T11:29:17.126Z,81.58
2017-12-23T11:29:58.391Z,81.52
2017-12-23T11:30:38.779Z,81.43
2017-12-23T11:31:19.982Z,81.43
2017-12-23T11:32:00.364Z,81.1
2017-12-23T11:32:41.120Z,81.1
2017-12-23T11:33:21.452Z,81.24
2017-12-23T11:34:02.505Z,81.1
2017-12-23T11:34:43.553Z,81.29
2017-12-23T11:35:24.461Z,81.86
2017-12-23T11:36:07.914Z,81.48
2017-12-23T11:36:49.026Z,81.38
2017-12-23T11:37:29.645Z,81.71
2017-12-23T11:38:10.371Z,81.71
2017-12-23T11:38:51.524Z,80.85
2017-12-23T11:39:31.921Z,81.52
2017-12-23T11:40:12.719Z,81.14
2017-12-23T11:40:54.546Z,81.24
2017-12-23T11:41:35.227Z,80.38
2017-12-23T11:43:55.985Z,81.62
2017-12-23T11:44:42.900Z,81.14
2017-12-23T11:45:34.255Z,81.43
2017-12-23T11:46:15.363Z,80.95
2017-12-23T11:46:56.065Z,81.33
2017-12-23T11:47:37.131Z,80.57
2017-12-23T11:48:18.618Z,81.14
2017-12-23T11:48:58.623Z,81.14
2017-12-23T11:49:39.717Z,81.14
2017-12-23T11:50:20.737Z,80.38
2017-12-23T11:51:01.149Z,80.57
2017-12-23T11:51:44.599Z,80.95
2017-12-23T11:52:24.393Z,81.14
2017-12-23T11:53:05.243Z,81.71
2017-12-23T11:53:46.612Z,81.71
2017-12-23T11:54:29.348Z,81.71
2017-12-23T11:55:10.142Z,81.52
2017-12-23T11:55:50.486Z,81.33
2017-12-23T11:56:32.845Z,81.33
2017-12-23T11:57:13.250Z,81.52
2017-12-23T11:57:54.847Z,81.24
2017-12-23T11:58:35.818Z,82
2017-12-23T11:59:16.926Z,82.06
2017-12-23T11:59:57.023Z,82.19
2017-12-23T12:00:41.580Z,81.52
2017-12-23T12:01:22.338Z,81.33
2017-12-23T12:02:04.681Z,81.52
2017-12-23T12:02:45.418Z,81.04
2017-12-23T12:03:26.295Z,81.24
2017-12-23T12:04:09.772Z,82.29
2017-12-23T12:04:50.247Z,82.19
2017-12-23T12:05:31.699Z,81.9
2017-12-23T12:06:14.897Z,81.62
2017-12-23T12:06:55.539Z,81.24
2017-12-23T12:07:37.100Z,81.43
2017-12-23T12:08:17.434Z,81.33
2017-12-23T12:08:59.847Z,81.24
2017-12-23T12:09:41.258Z,80.85
2017-12-23T12:10:22.334Z,81.14
2017-12-23T12:11:03.899Z,80.38
2017-12-23T12:11:44.912Z,80.76
2017-12-23T12:12:26.438Z,80.66
2017-12-23T12:13:06.027Z,80.28
2017-12-23T12:13:47.666Z,80.85
2017-12-23T12:14:28.620Z,80.85
2017-12-23T12:15:09.016Z,81.33
2017-12-23T12:15:50.374Z,81.04
2017-12-23T12:16:31.521Z,81.04
2017-12-23T12:17:12.922Z,81.24
2017-12-23T12:17:53.870Z,80.85
2017-12-23T12:18:34.331Z,80.38
2017-12-23T12:19:14.888Z,80.19
2017-12-23T12:19:55.817Z,80.38
2017-12-23T12:20:36.483Z,80.57
2017-12-23T12:21:17.234Z,81.33
2017-12-23T12:21:58.334Z,80.66
2017-12-23T12:24:02.582Z,80.76
2017-12-23T12:24:47.851Z,80.95
2017-12-23T12:25:28.298Z,81.04
2017-12-23T12:26:08.998Z,80.95
2017-12-23T12:26:49.775Z,80.47
2017-12-23T12:27:30.924Z,80.85
2017-12-23T12:28:14.558Z,80.47
2017-12-23T12:28:53.839Z,80.47
2017-12-23T12:29:35.175Z,79.61
2017-12-23T12:30:15.754Z,79.71
2017-12-23T12:30:56.449Z,79.71
2017-12-23T12:31:38.134Z,79.43
2017-12-23T12:32:18.476Z,79.33
2017-12-23T12:33:00.750Z,79.33
2017-12-23T12:33:43.512Z,79.23
2017-12-23T12:34:26.982Z,79.23
2017-12-23T12:35:09.222Z,79.65
2017-12-23T12:35:50.073Z,79.46
2017-12-23T12:36:30.518Z,79.27
2017-12-23T12:37:11.046Z,78.79
2017-12-23T12:37:52.842Z,78.56
2017-12-23T12:38:33.288Z,79.14
2017-12-23T12:39:13.928Z,79.43
2017-12-23T12:39:54.826Z,79.27
2017-12-23T12:40:35.974Z,78.7
2017-12-23T12:41:16.897Z,78.51
2017-12-23T12:41:57.402Z,78.28
2017-12-23T12:42:38.622Z,78.75
2017-12-23T12:43:19.227Z,78.85
2017-12-23T12:43:59.969Z,78.66
2017-12-23T12:44:41.607Z,79.14
2017-12-23T12:45:23.279Z,78.56
2017-12-23T12:46:06.608Z,79.14
2017-12-23T12:46:48.879Z,78.66
2017-12-23T12:47:29.813Z,78.75
2017-12-23T12:48:12.146Z,78.56
2017-12-23T12:48:52.804Z,78.37
2017-12-23T12:49:33.001Z,78.6
2017-12-23T12:50:13.370Z,78.99
2017-12-23T12:50:53.888Z,78.47
2017-12-23T12:51:34.915Z,78.18
2017-12-23T12:52:15.484Z,78.56
2017-12-23T12:52:56.011Z,78.75
2017-12-23T12:53:37.207Z,78.85
2017-12-23T12:54:18.004Z,78.47
2017-12-23T12:55:00.016Z,78.75
2017-12-23T12:55:41.413Z,78.75
2017-12-23T12:56:21.890Z,78.85
2017-12-23T12:57:02.562Z,78.66
2017-12-23T12:57:42.798Z,78.85
2017-12-23T12:58:23.617Z,79.23
2017-12-23T12:59:03.858Z,79.04
2017-12-23T12:59:45.200Z,78.94
2017-12-23T13:00:28.366Z,78.66
2017-12-23T13:01:09.794Z,79.23
2017-12-23T13:01:50.596Z,78.99
2017-12-23T13:02:31.145Z,78.13
2017-12-23T13:03:12.433Z,78.18
2017-12-23T13:03:53.198Z,78.6
2017-12-23T13:04:34.108Z,78.31
2017-12-23T13:05:14.599Z,77.65
2017-12-23T13:05:56.479Z,77.55
2017-12-23T13:06:37.021Z,77.74
2017-12-23T13:07:17.683Z,77.36
2017-12-23T13:08:01.332Z,77.36
2017-12-23T13:08:42.843Z,77.55
2017-12-23T13:09:23.245Z,77.55
2017-12-23T13:10:04.890Z,77.17
2017-12-23T13:10:46.213Z,77.36
2017-12-23T13:13:07.201Z,77.55
2017-12-23T13:13:49.808Z,77.84
2017-12-23T13:15:49.965Z,77.65
2017-12-23T13:16:33.099Z,77.74
2017-12-23T13:17:13.953Z,77.08
2017-12-23T13:17:54.653Z,77.17
2017-12-23T13:18:34.740Z,77.45
2017-12-23T13:19:15.826Z,77.55
2017-12-23T13:19:57.476Z,77.94
2017-12-23T13:20:38.363Z,77.26
2017-12-23T13:21:18.827Z,77.65
2017-12-23T13:21:59.446Z,77.26
2017-12-23T13:22:40.723Z,77.65
2017-12-23T13:23:22.350Z,78.13
2017-12-23T13:26:24.288Z,77.55
2017-12-23T13:27:11.435Z,77.17
2017-12-23T13:36:41.896Z,76.45
2017-12-23T13:39:05.146Z,76.98
2017-12-23T13:39:49.599Z,77.36
2017-12-23T13:44:17.195Z,76.79
2017-12-23T13:45:05.767Z,77.45
2017-12-23T13:45:54.626Z,77.65
2017-12-23T13:46:46.003Z,77.26
2017-12-23T13:47:34.037Z,77.55
2017-12-23T13:51:09.749Z,77.84
2017-12-23T13:51:46.490Z,77.55
2017-12-23T13:52:27.294Z,77.36
2017-12-23T13:53:08.416Z,77.17
2017-12-23T13:53:48.835Z,77.17
2017-12-23T13:54:30.640Z,77.17
2017-12-23T13:55:11.672Z,77.65
2017-12-23T13:55:52.892Z,77.17
2017-12-23T13:56:34.235Z,77.08
2017-12-23T14:00:07.412Z,77.55
2017-12-23T14:00:52.079Z,77.26
2017-12-23T14:01:33.393Z,77.17
2017-12-23T14:02:16.707Z,76.79
2017-12-23T14:02:56.514Z,76.79
2017-12-23T14:03:37.242Z,76.4
2017-12-23T14:04:18.969Z,76.12
2017-12-23T14:05:00.312Z,76.88
2017-12-23T14:05:41.298Z,76.31
2017-12-23T14:06:21.986Z,76.79
2017-12-23T14:08:17.572Z,77.26
2017-12-23T14:11:00.331Z,76.64
2017-12-23T14:12:56.414Z,76.5
2017-12-23T14:13:39.804Z,76.21
2017-12-23T14:14:21.064Z,76.6
2017-12-23T14:15:03.123Z,76.79
2017-12-23T14:15:43.901Z,77.17
2017-12-23T14:16:29.339Z,76.5
2017-12-23T14:17:51.096Z,76.03
2017-12-23T14:18:31.889Z,76.4
2017-12-23T14:19:13.759Z,76.12
2017-12-23T14:19:54.555Z,76.54
2017-12-23T14:20:35.071Z,76.35
2017-12-23T14:21:15.968Z,76.35
2017-12-23T14:21:57.481Z,75.68
2017-12-23T14:22:38.744Z,75.78
2017-12-23T14:23:22.149Z,75.3
2017-12-23T14:24:04.380Z,75.59
2017-12-23T14:24:46.015Z,75.3
2017-12-23T14:25:26.886Z,75.78
2017-12-23T14:26:09.100Z,75.78
2017-12-23T14:26:51.670Z,75.39
2017-12-23T14:27:31.096Z,75.3
2017-12-23T14:28:11.601Z,74.82
2017-12-23T14:28:54.371Z,75.01
2017-12-23T14:29:34.899Z,74.82
2017-12-23T14:30:15.369Z,75.49
2017-12-23T14:30:55.845Z,75.87
2017-12-23T14:31:36.171Z,75.2
2017-12-23T14:32:18.474Z,75.3
2017-12-23T14:33:02.281Z,75.1
2017-12-23T14:33:43.581Z,75.3
2017-12-23T14:34:24.639Z,75.39
2017-12-23T14:35:05.393Z,75.3
2017-12-23T14:35:47.175Z,75.87
2017-12-23T14:36:31.404Z,75.39
2017-12-23T14:37:11.571Z,76.54
2017-12-23T14:37:51.874Z,76.16
2017-12-23T14:38:35.665Z,76.06
2017-12-23T14:39:19.230Z,76.31
2017-12-23T14:39:58.367Z,77.17
2017-12-23T14:40:39.950Z,77.17
2017-12-23T14:41:20.987Z,76.88
2017-12-23T14:42:04.767Z,76.79
2017-12-23T14:42:45.272Z,77.4
2017-12-23T14:43:27.062Z,77.4
2017-12-23T14:44:07.750Z,76.69
2017-12-23T14:44:49.452Z,76.64
2017-12-23T14:45:30.873Z,76.92
2017-12-23T14:46:12.427Z,76.25
2017-12-23T14:46:54.577Z,76.5
2017-12-23T14:47:36.908Z,76.4
2017-12-23T14:48:18.692Z,76.4
2017-12-23T14:48:58.629Z,76.82
2017-12-23T14:49:41.276Z,76.16
2017-12-23T14:50:23.175Z,76.31
2017-12-23T14:51:05.777Z,76.35
2017-12-23T14:51:47.268Z,76.35
2017-12-23T14:52:27.857Z,76.21
2017-12-23T14:53:10.842Z,76.12
2017-12-23T14:53:51.712Z,76.35
2017-12-23T14:54:31.963Z,76.5
2017-12-23T14:55:13.353Z,76.31
2017-12-23T14:55:54.124Z,76.5
2017-12-23T14:56:35.108Z,76.88
2017-12-23T14:57:15.677Z,76.03
2017-12-23T14:57:56.135Z,76.21
2017-12-23T14:58:39.201Z,76.69
2017-12-23T14:59:19.829Z,76.88
2017-12-23T15:00:00.876Z,76.79
2017-12-23T15:00:41.525Z,76.4
2017-12-23T15:01:22.868Z,76.5
2017-12-23T15:02:03.474Z,76.79
2017-12-23T15:02:44.518Z,76.45
2017-12-23T15:03:25.068Z,76.4
2017-12-23T15:04:06.348Z,76.69
2017-12-23T15:04:46.908Z,76.4
2017-12-23T15:05:27.272Z,76.35
2017-12-23T15:06:08.320Z,76.4
2017-12-23T15:06:48.710Z,76.4
2017-12-23T15:07:29.210Z,76.69
2017-12-23T15:08:10.795Z,76.4
2017-12-23T15:08:51.568Z,76.98
2017-12-23T15:09:31.881Z,76.69
2017-12-23T15:10:12.643Z,76.79
2017-12-23T15:10:54.756Z,76.88
2017-12-23T15:11:35.797Z,76.31
2017-12-23T15:12:16.396Z,76.5
2017-12-23T15:12:56.806Z,77.08
2017-12-23T15:13:37.776Z,76.31
2017-12-23T15:14:20.132Z,76.69
2017-12-23T15:14:59.954Z,76.16
2017-12-23T15:15:40.306Z,76.64
2017-12-23T15:16:21.344Z,76.73
2017-12-23T15:17:02.047Z,76.5
2017-12-23T15:17:42.797Z,76.35
2017-12-23T15:18:23.233Z,76.06
2017-12-23T15:19:04.262Z,76.35
2017-12-23T15:19:44.670Z,76.35
2017-12-23T15:20:25.231Z,76.54
2017-12-23T15:21:05.716Z,75.59
2017-12-23T15:21:46.022Z,75.96
2017-12-23T15:22:27.399Z,75.78
2017-12-23T15:23:08.978Z,76.64
2017-12-23T15:23:49.381Z,76.54
2017-12-23T15:24:30.162Z,75.68
2017-12-23T15:25:10.667Z,75.26
2017-12-23T15:25:52.193Z,76.5
2017-12-23T15:26:33.392Z,76.21
2017-12-23T15:27:16.264Z,76.12
2017-12-23T15:27:56.530Z,76.5
2017-12-23T15:28:36.704Z,76.03
2017-12-23T15:29:18.165Z,76.69
2017-12-23T15:29:58.884Z,76.31
2017-12-23T15:30:39.922Z,76.5
2017-12-23T15:31:20.809Z,76.69
2017-12-23T15:32:01.084Z,76.98
2017-12-23T15:32:41.666Z,76.98
2017-12-23T15:33:22.050Z,76.79
2017-12-23T15:34:02.871Z,77.17
2017-12-23T15:34:44.298Z,77.17
2017-12-23T15:35:26.191Z,76.69
2017-12-23T15:36:06.423Z,77.17
2017-12-23T15:36:47.200Z,76.69
2017-12-23T15:37:27.995Z,77.08
2017-12-23T15:38:08.569Z,77.26
2017-12-23T15:38:49.142Z,77.45
2017-12-23T15:39:29.815Z,77.17
2017-12-23T15:40:10.934Z,77.01
2017-12-23T15:40:52.701Z,77.36
2017-12-23T15:41:33.141Z,76.5
2017-12-23T15:42:14.728Z,76.35
2017-12-23T15:42:55.220Z,76.4
2017-12-23T15:43:36.399Z,76.21
2017-12-23T15:44:17.213Z,76.35
2017-12-23T15:44:57.586Z,76.16
2017-12-23T15:45:38.460Z,76.64
2017-12-23T15:46:19.409Z,76.79
2017-12-23T15:47:00.029Z,76.4
2017-12-23T15:47:40.224Z,76.79
2017-12-23T15:48:20.873Z,77.36
2017-12-23T15:49:04.088Z,76.88
2017-12-23T15:49:44.628Z,77.55
2017-12-23T15:50:25.277Z,77.65
2017-12-23T15:51:05.909Z,77.74
2017-12-23T15:51:46.769Z,78.22
2017-12-23T15:52:28.223Z,78.13
2017-12-23T15:53:08.936Z,78.13
2017-12-23T15:53:49.425Z,77.84
2017-12-23T15:54:29.932Z,78.13
2017-12-23T15:55:10.870Z,77.65
2017-12-23T15:55:51.187Z,77.65
2017-12-23T15:56:32.411Z,77.74
2017-12-23T15:57:13.376Z,77.94
2017-12-23T15:57:54.198Z,77.65
2017-12-23T15:58:35.294Z,77.94
2017-12-23T15:59:16.713Z,78.03
2017-12-23T15:59:58.624Z,78.22
2017-12-23T16:00:39.375Z,78.41
2017-12-23T16:01:19.750Z,78.51
2017-12-23T16:02:00.350Z,78.28
2017-12-23T16:02:41.075Z,78.75
2017-12-23T16:03:22.084Z,78.28
2017-12-23T16:04:02.832Z,78.94
2017-12-23T16:42:33.734Z,83.16
2017-12-23T16:43:24.501Z,82.82
2017-12-23T16:44:06.039Z,82.43
2017-12-23T16:44:46.288Z,82.63
2017-12-23T16:45:26.828Z,83.39
2017-12-23T16:46:09.749Z,82.34
2017-12-23T16:46:50.187Z,82.24
2017-12-23T16:47:30.746Z,82.34
2017-12-23T16:48:11.719Z,81.48
2017-12-23T16:48:52.648Z,81.58
2017-12-23T16:49:33.190Z,81.1
2017-12-23T16:50:13.666Z,81.29
2017-12-23T16:50:54.945Z,81.77
2017-12-23T16:51:35.952Z,81.01
2017-12-23T16:52:16.666Z,81.1
2017-12-23T16:52:57.702Z,81.1
2017-12-23T16:53:38.221Z,81.1
2017-12-23T16:54:19.607Z,80.81
2017-12-23T16:56:34.857Z,80.15
2017-12-23T16:57:20.565Z,80.53
2017-12-23T16:59:23.276Z,81.1
2017-12-23T17:00:06.414Z,80.57
2017-12-23T17:00:46.595Z,80.33
2017-12-23T17:01:26.837Z,80.47
2017-12-23T17:02:08.475Z,79.86
2017-12-23T17:02:49.277Z,79.28
2017-12-23T17:03:30.309Z,79.86
2017-12-23T17:04:10.484Z,80.28
2017-12-23T17:04:51.236Z,80.19
2017-12-23T17:05:32.905Z,80.33
2017-12-23T17:06:12.504Z,79.71
2017-12-23T17:06:52.663Z,79.61
2017-12-23T17:07:33.380Z,79.71
2017-12-23T17:08:14.274Z,80.19
2017-12-23T17:08:56.934Z,80.38
2017-12-23T17:09:37.578Z,79.52
2017-12-23T17:10:18.529Z,79.33
2017-12-23T17:11:00.605Z,78.94
2017-12-23T17:11:40.679Z,79.04
2017-12-23T17:12:21.990Z,79.04
2017-12-23T17:13:02.921Z,78.75
2017-12-23T17:13:43.282Z,78.75
2017-12-23T17:14:24.097Z,78.75
2017-12-23T17:15:05.097Z,78.75
2017-12-23T17:15:47.021Z,78.75
2017-12-23T17:16:29.939Z,78.47
2017-12-23T17:17:10.289Z,79.23
2017-12-23T17:17:50.856Z,78.66
2017-12-23T17:18:31.409Z,78.75
2017-12-23T17:19:13.101Z,79.23
2017-12-23T17:19:54.613Z,79.23
2017-12-23T17:20:35.057Z,78.56
2017-12-23T17:21:16.240Z,79.23
2017-12-23T17:21:56.875Z,78.66
2017-12-23T17:22:38.573Z,78.75
2017-12-23T17:23:21.649Z,78.85
2017-12-23T17:24:01.904Z,78.94
2017-12-23T17:24:42.720Z,78.75
2017-12-23T17:25:23.200Z,78.85
2017-12-23T17:26:03.827Z,78.66
2017-12-23T17:26:44.485Z,78.94
2017-12-23T17:27:24.678Z,79.23
2017-12-23T17:28:05.038Z,78.85
2017-12-23T17:28:48.509Z,78.75
2017-12-23T17:29:32.786Z,78.18
2017-12-23T17:30:13.831Z,78.47
2017-12-23T17:30:54.372Z,78.94
2017-12-23T17:31:35.066Z,78.28
2017-12-23T17:32:15.610Z,79.43
2017-12-23T17:32:56.980Z,78.66
2017-12-23T17:35:08.417Z,78.18
2017-12-23T17:36:07.351Z,78.09
2017-12-23T17:37:01.870Z,78.18
2017-12-23T17:37:56.365Z,78.31